createdAt,value
2019-03-31T00:01:17.195Z,94188.86
2019-03-31T00:03:45.686Z,94191.19
2019-03-31T00:06:14.108Z,94190.81
2019-03-31T00:08:42.571Z,94190.59
2019-03-31T00:11:11.060Z,94190.28
2019-03-31T00:13:39.494Z,94189.64
2019-03-31T00:16:08.077Z,94186.33
2019-03-31T00:18:36.640Z,94193.77
2019-03-31T00:21:05.222Z,94186.82
2019-03-31T00:23:33.770Z,94191.30
2019-03-31T00:26:02.305Z,94186.53
2019-03-31T00:28:30.738Z,94180.73
2019-03-31T00:30:59.166Z,94185.59
2019-03-31T00:33:27.677Z,94181.77
2019-03-31T00:35:56.212Z,94180.30
2019-03-31T00:38:24.656Z,94178.77
2019-03-31T00:40:53.144Z,94179.02
2019-03-31T00:43:21.599Z,94181.28
2019-03-31T00:45:50.023Z,94185.72
2019-03-31T00:48:18.479Z,94179.13
2019-03-31T00:50:46.895Z,94182.31
2019-03-31T00:53:15.355Z,94174.30
2019-03-31T00:55:43.779Z,94177.86
2019-03-31T00:58:12.471Z,94169.20
2019-03-31T01:00:46.838Z,94164.70
2019-03-31T01:03:16.166Z,94164.77
2019-03-31T01:05:44.962Z,94164.42
2019-03-31T01:08:13.928Z,94165.69
2019-03-31T01:10:43.619Z,94159.77
2019-03-31T01:13:12.328Z,94157.98
2019-03-31T01:15:40.819Z,94160.73
2019-03-31T01:18:10.183Z,94161.91
2019-03-31T01:20:38.683Z,94163.85
2019-03-31T01:23:07.102Z,94165.45
2019-03-31T01:25:35.567Z,94159.89
2019-03-31T01:28:04.143Z,94162.16
2019-03-31T01:30:32.724Z,94164.13
2019-03-31T01:33:01.313Z,94160.73
2019-03-31T01:35:29.854Z,94164.81
2019-03-31T01:37:58.378Z,94163.17
2019-03-31T01:40:26.900Z,94168.36
2019-03-31T01:42:55.360Z,94158.75
2019-03-31T01:45:23.931Z,94156.46
2019-03-31T01:47:52.594Z,94156.80
2019-03-31T01:50:22.143Z,94167.09
2019-03-31T01:52:50.626Z,94161.44
2019-03-31T01:55:19.464Z,94162.25
2019-03-31T01:57:47.898Z,94162.80
2019-03-31T02:00:24.560Z,94164.03
2019-03-31T02:02:53.048Z,94159.52
2019-03-31T02:05:21.642Z,94162.70
2019-03-31T02:07:50.059Z,94164.21
2019-03-31T02:10:18.524Z,94167.63
2019-03-31T02:12:46.989Z,94169.27
2019-03-31T02:15:15.444Z,94161.82
2019-03-31T02:17:43.895Z,94162.54
2019-03-31T02:20:12.557Z,94160.42
2019-03-31T02:22:41.023Z,94164.58
2019-03-31T02:25:09.611Z,94160.00
2019-03-31T02:27:38.228Z,94165.16
2019-03-31T02:30:07.223Z,94158.70
2019-03-31T02:32:35.719Z,94158.41
2019-03-31T02:35:05.982Z,94159.39
2019-03-31T02:37:34.549Z,94153.17
2019-03-31T02:40:03.237Z,94154.70
2019-03-31T02:42:31.971Z,94151.98
2019-03-31T02:45:00.755Z,94161.11
2019-03-31T02:47:29.504Z,94156.19
2019-03-31T02:49:57.954Z,94154.07
2019-03-31T02:52:26.521Z,94155.73
2019-03-31T02:54:55.078Z,94153.37
2019-03-31T02:57:24.291Z,94152.75
2019-03-31T02:59:53.710Z,94151.25
2019-03-31T03:02:40.597Z,94153.33
2019-03-31T03:04:55.645Z,94150.53
2019-03-31T03:07:25.721Z,94150.23
2019-03-31T03:09:56.161Z,94148.34
2019-03-31T03:12:27.686Z,94148.44
2019-03-31T03:14:59.592Z,94147.56
2019-03-31T03:17:28.116Z,94145.50
2019-03-31T03:19:56.877Z,94147.95
2019-03-31T03:22:25.417Z,94152.27
2019-03-31T03:24:53.911Z,94143.33
2019-03-31T03:27:22.474Z,94137.89
2019-03-31T03:29:50.883Z,94141.95
2019-03-31T03:32:19.417Z,94137.41
2019-03-31T03:34:47.902Z,94134.91
2019-03-31T03:37:16.462Z,94132.97
2019-03-31T03:39:44.878Z,94135.39
2019-03-31T03:42:13.302Z,94134.27
2019-03-31T03:44:41.758Z,94128.61
2019-03-31T03:47:10.208Z,94133.48
2019-03-31T03:49:38.673Z,94133.88
2019-03-31T03:52:07.093Z,94134.14
2019-03-31T03:54:35.544Z,94131.94
2019-03-31T03:57:04.044Z,94131.55
2019-03-31T03:59:32.566Z,94131.68
2019-03-31T04:02:01.225Z,94135.09
2019-03-31T04:04:29.649Z,94130.20
2019-03-31T04:06:58.253Z,94128.69
2019-03-31T04:09:26.758Z,94123.12
2019-03-31T04:11:55.165Z,94122.44
2019-03-31T04:14:23.625Z,94129.52
2019-03-31T04:16:52.044Z,94119.16
2019-03-31T04:19:20.598Z,94123.99
2019-03-31T04:21:49.019Z,94122.04
2019-03-31T04:24:17.564Z,94129.26
2019-03-31T04:26:46.031Z,94121.47
2019-03-31T04:29:14.568Z,94123.25
2019-03-31T04:31:43.061Z,94120.40
2019-03-31T04:34:11.489Z,94124.46
2019-03-31T04:36:39.944Z,94124.23
2019-03-31T04:39:08.838Z,94127.81
2019-03-31T04:41:37.372Z,94116.26
2019-03-31T04:44:05.822Z,94119.80
2019-03-31T04:46:34.328Z,94120.20
2019-03-31T04:49:02.834Z,94119.94
2019-03-31T04:51:31.327Z,94116.79
2019-03-31T04:53:59.802Z,94116.63
2019-03-31T04:56:28.216Z,94111.71
2019-03-31T04:58:56.686Z,94118.83
2019-03-31T05:01:25.185Z,94121.23
2019-03-31T05:04:04.478Z,94119.35
2019-03-31T05:06:23.853Z,94118.83
2019-03-31T05:08:52.272Z,94120.94
2019-03-31T05:11:20.847Z,94124.03
2019-03-31T05:13:49.284Z,94124.33
2019-03-31T05:16:17.768Z,94130.69
2019-03-31T05:18:46.233Z,94126.17
2019-03-31T05:21:14.834Z,94126.27
2019-03-31T05:23:43.309Z,94126.30
2019-03-31T05:26:11.780Z,94121.39
2019-03-31T05:28:40.279Z,94123.87
2019-03-31T05:31:08.876Z,94119.78
2019-03-31T05:33:37.305Z,94122.63
2019-03-31T05:36:05.840Z,94119.25
2019-03-31T05:38:34.276Z,94123.13
2019-03-31T05:41:02.829Z,94129.61
2019-03-31T05:43:31.280Z,94129.29
2019-03-31T05:45:59.717Z,94129.34
2019-03-31T05:48:28.178Z,94128.16
2019-03-31T05:50:56.712Z,94128.28
2019-03-31T05:53:25.175Z,94126.33
2019-03-31T05:55:53.634Z,94129.16
2019-03-31T05:58:22.056Z,94126.44
2019-03-31T06:00:50.586Z,94126.91
2019-03-31T06:03:19.082Z,94132.58
2019-03-31T06:05:47.614Z,94127.61
2019-03-31T06:08:16.188Z,94125.17
2019-03-31T06:10:44.647Z,94129.09
2019-03-31T06:13:13.113Z,94125.52
2019-03-31T06:15:41.547Z,94128.20
2019-03-31T06:18:10.018Z,94121.42
2019-03-31T06:20:38.521Z,94126.67
2019-03-31T06:23:07.119Z,94125.39
2019-03-31T06:25:35.537Z,94124.86
2019-03-31T06:28:04.143Z,94125.98
2019-03-31T06:30:32.620Z,94131.34
2019-03-31T06:33:01.112Z,94133.73
2019-03-31T06:35:29.613Z,94125.13
2019-03-31T06:37:58.081Z,94124.59
2019-03-31T06:40:26.607Z,94119.49
2019-03-31T06:42:55.104Z,94120.80
2019-03-31T06:45:23.632Z,94122.97
2019-03-31T06:47:52.179Z,94125.64
2019-03-31T06:50:20.690Z,94124.68
2019-03-31T06:52:49.184Z,94120.73
2019-03-31T06:55:17.727Z,94121.39
2019-03-31T06:57:46.227Z,94119.86
2019-03-31T07:00:15.139Z,94119.58
2019-03-31T07:02:43.693Z,94126.03
2019-03-31T07:05:12.198Z,94123.05
2019-03-31T07:07:40.656Z,94127.90
2019-03-31T07:10:09.375Z,94130.36
2019-03-31T07:12:37.894Z,94130.36
2019-03-31T07:15:08.379Z,94128.48
2019-03-31T07:17:36.910Z,94131.38
2019-03-31T07:20:10.412Z,94126.70
2019-03-31T07:25:09.630Z,94128.57
2019-03-31T07:27:38.666Z,94127.63
2019-03-31T07:30:15.387Z,94128.05
2019-03-31T07:32:43.926Z,94120.59
2019-03-31T07:35:18.667Z,94124.41
2019-03-31T07:37:47.531Z,94125.52
2019-03-31T07:40:16.317Z,94123.36
2019-03-31T07:42:44.846Z,94120.67
2019-03-31T07:45:15.133Z,94118.23
2019-03-31T07:47:44.428Z,94115.89
2019-03-31T07:50:15.127Z,94119.70
2019-03-31T07:52:43.722Z,94118.89
2019-03-31T07:55:12.485Z,94118.75
2019-03-31T07:57:41.517Z,94126.34
2019-03-31T08:00:18.921Z,94120.36
2019-03-31T08:02:47.508Z,94119.49
2019-03-31T08:05:17.585Z,94116.44
2019-03-31T08:07:46.373Z,94118.33
2019-03-31T08:10:16.750Z,94117.54
2019-03-31T08:12:45.366Z,94108.28
2019-03-31T08:15:14.343Z,94117.95
2019-03-31T08:17:42.995Z,94111.81
2019-03-31T08:20:13.822Z,94117.16
2019-03-31T08:22:42.386Z,94109.84
2019-03-31T08:25:11.495Z,94106.74
2019-03-31T08:27:39.995Z,94112.84
2019-03-31T08:30:11.426Z,94109.31
2019-03-31T08:32:40.248Z,94113.74
2019-03-31T08:35:10.863Z,94119.37
2019-03-31T08:37:39.510Z,94113.75
2019-03-31T08:40:10.241Z,94112.93
2019-03-31T08:42:38.743Z,94101.76
2019-03-31T08:45:08.165Z,94109.19
2019-03-31T08:47:36.960Z,94107.21
2019-03-31T08:50:07.159Z,94106.70
2019-03-31T08:52:35.582Z,94097.89
2019-03-31T08:55:05.166Z,94104.20
2019-03-31T08:57:33.669Z,94105.38
2019-03-31T09:00:02.175Z,94097.34
2019-03-31T09:02:32.283Z,94097.67
2019-03-31T09:05:02.365Z,94095.14
2019-03-31T09:07:30.829Z,94093.10
2019-03-31T09:09:59.279Z,94087.44
2019-03-31T09:12:27.818Z,94067.59
2019-03-31T09:14:56.319Z,94067.59
2019-03-31T09:17:24.919Z,94090.80
2019-03-31T09:19:53.432Z,94090.80
2019-03-31T09:22:21.924Z,94090.78
2019-03-31T09:24:50.418Z,94090.27
2019-03-31T09:27:18.919Z,94088.69
2019-03-31T09:29:47.474Z,94041.72
2019-03-31T09:32:15.928Z,94087.14
2019-03-31T09:34:44.357Z,94083.41
2019-03-31T09:37:13.129Z,94082.50
2019-03-31T09:39:41.641Z,94084.44
2019-03-31T09:42:10.104Z,94077.44
2019-03-31T09:44:38.538Z,94079.53
2019-03-31T09:47:07.036Z,94071.81
2019-03-31T09:49:35.560Z,94069.40
2019-03-31T09:52:04.253Z,94065.44
2019-03-31T09:54:32.736Z,94063.45
2019-03-31T09:57:01.167Z,94063.42
2019-03-31T09:59:29.603Z,94062.87
2019-03-31T10:01:58.152Z,94068.42
2019-03-31T10:04:26.573Z,94060.89
2019-03-31T10:06:55.168Z,94061.27
2019-03-31T10:09:24.076Z,94063.11
2019-03-31T10:11:55.318Z,94031.87
2019-03-31T10:14:23.757Z,94031.87
2019-03-31T10:16:52.251Z,94058.57
2019-03-31T10:19:20.791Z,94054.39
2019-03-31T10:21:49.237Z,94053.31
2019-03-31T10:24:17.773Z,94049.46
2019-03-31T10:26:46.234Z,94051.67
2019-03-31T10:29:14.841Z,94049.41
2019-03-31T10:31:43.364Z,94053.30
2019-03-31T10:34:11.786Z,94047.89
2019-03-31T10:36:44.641Z,94050.77
2019-03-31T10:39:10.579Z,94042.75
2019-03-31T10:41:39.096Z,94041.48
2019-03-31T10:44:07.554Z,94036.96
2019-03-31T10:46:36.051Z,94034.12
2019-03-31T10:49:04.788Z,94039.45
2019-03-31T10:51:33.356Z,94042.98
2019-03-31T10:54:04.576Z,94034.67
2019-03-31T10:56:32.184Z,94040.58
2019-03-31T10:59:00.630Z,94032.01
2019-03-31T11:01:29.069Z,94037.12
2019-03-31T11:03:57.663Z,94036.87
2019-03-31T11:06:26.185Z,94032.52
2019-03-31T11:08:55.000Z,94035.63
2019-03-31T11:11:23.504Z,94035.50
2019-03-31T11:13:51.988Z,94032.01
2019-03-31T11:16:20.447Z,94027.65
2019-03-31T11:18:48.963Z,94025.27
2019-03-31T11:21:19.146Z,94026.06
2019-03-31T11:23:47.599Z,94025.46
2019-03-31T11:26:16.246Z,94030.70
2019-03-31T11:28:44.690Z,94020.30
2019-03-31T11:31:13.122Z,94019.38
2019-03-31T11:33:41.683Z,94020.44
2019-03-31T11:36:10.191Z,94014.41
2019-03-31T11:38:38.640Z,94007.59
2019-03-31T11:41:07.102Z,94015.01
2019-03-31T11:43:35.543Z,94028.78
2019-03-31T11:46:04.466Z,94017.92
2019-03-31T11:48:32.995Z,94025.34
2019-03-31T11:51:01.431Z,94005.71
2019-03-31T11:53:29.901Z,94003.62
2019-03-31T11:55:58.339Z,94003.06
2019-03-31T11:58:26.782Z,94002.85
2019-03-31T12:00:56.284Z,94002.77
2019-03-31T12:03:24.811Z,94010.70
2019-03-31T12:05:53.430Z,94005.47
2019-03-31T12:08:21.887Z,94001.03
2019-03-31T12:10:50.384Z,93995.03
2019-03-31T12:13:18.993Z,94003.95
2019-03-31T12:15:47.495Z,93993.10
2019-03-31T12:18:15.944Z,93994.11
2019-03-31T12:20:44.473Z,93995.80
2019-03-31T12:23:12.902Z,93998.42
2019-03-31T12:25:41.369Z,93996.63
2019-03-31T12:28:09.821Z,93991.97
2019-03-31T12:30:38.328Z,93997.27
2019-03-31T12:33:06.847Z,93980.81
2019-03-31T12:35:35.322Z,93984.92
2019-03-31T12:38:03.771Z,93977.76
2019-03-31T12:40:36.460Z,93978.61
2019-03-31T12:43:06.414Z,93970.09
2019-03-31T12:45:35.019Z,93971.39
2019-03-31T12:48:03.516Z,93980.81
2019-03-31T12:50:32.126Z,93974.71
2019-03-31T12:53:00.617Z,93966.57
2019-03-31T12:55:29.197Z,93962.81
2019-03-31T12:57:57.783Z,93961.64
2019-03-31T13:00:26.361Z,93961.64
2019-03-31T13:02:55.152Z,93957.44
2019-03-31T13:05:23.659Z,93956.18
2019-03-31T13:07:56.523Z,93956.36
2019-03-31T13:10:22.346Z,93955.57
2019-03-31T13:12:50.870Z,93961.41
2019-03-31T13:15:19.342Z,93957.03
2019-03-31T13:17:47.875Z,93942.86
2019-03-31T13:20:16.456Z,93951.27
2019-03-31T13:22:46.019Z,93948.75
2019-03-31T13:25:14.801Z,93949.09
2019-03-31T13:27:43.241Z,93947.05
2019-03-31T13:30:11.864Z,93941.16
2019-03-31T13:32:40.345Z,93934.97
2019-03-31T13:35:08.961Z,93938.04
2019-03-31T13:37:37.451Z,93943.81
2019-03-31T13:40:07.235Z,93934.80
2019-03-31T13:42:35.762Z,93927.45
2019-03-31T13:45:06.689Z,93927.19
2019-03-31T13:47:35.675Z,93929.66
2019-03-31T13:50:08.670Z,93919.33
2019-03-31T13:52:37.178Z,93919.50
2019-03-31T13:55:08.810Z,93918.98
2019-03-31T13:57:39.180Z,93913.95
2019-03-31T14:00:10.122Z,93915.09
2019-03-31T14:02:39.641Z,93920.23
2019-03-31T14:05:08.608Z,93908.63
2019-03-31T14:07:37.055Z,93904.66
2019-03-31T14:10:07.058Z,93906.06
2019-03-31T14:12:35.637Z,93900.00
2019-03-31T14:15:18.583Z,93888.23
2019-03-31T14:17:37.095Z,93890.44
2019-03-31T14:20:07.394Z,93896.81
2019-03-31T14:22:35.811Z,93895.25
2019-03-31T14:25:05.993Z,93897.91
2019-03-31T14:27:34.533Z,93893.09
2019-03-31T14:30:03.927Z,93893.08
2019-03-31T14:32:32.436Z,93892.42
2019-03-31T14:35:00.899Z,93883.59
2019-03-31T14:37:29.442Z,93888.33
2019-03-31T14:39:57.936Z,93888.91
2019-03-31T14:42:26.396Z,93886.63
2019-03-31T14:44:55.036Z,93879.44
2019-03-31T14:47:23.482Z,93876.00
2019-03-31T14:49:51.958Z,93877.14
2019-03-31T14:52:27.292Z,93872.02
2019-03-31T14:54:50.636Z,93878.56
2019-03-31T14:57:19.147Z,93875.30
2019-03-31T14:59:48.110Z,93879.24
2019-03-31T15:02:16.617Z,93875.30
2019-03-31T15:04:45.084Z,93877.17
2019-03-31T15:07:13.605Z,93881.30
2019-03-31T15:09:42.063Z,93875.30
2019-03-31T15:12:11.661Z,93871.30
2019-03-31T15:14:40.065Z,93864.97
2019-03-31T15:17:08.618Z,93873.70
2019-03-31T15:19:37.045Z,93859.25
2019-03-31T15:22:05.542Z,93866.55
2019-03-31T15:24:34.015Z,93864.31
2019-03-31T15:27:02.469Z,93867.44
2019-03-31T15:29:30.897Z,93873.92
2019-03-31T15:31:59.354Z,93871.62
2019-03-31T15:34:27.941Z,93866.26
2019-03-31T15:36:56.379Z,93860.44
2019-03-31T15:39:24.911Z,93863.95
2019-03-31T15:41:53.334Z,93859.88
2019-03-31T15:44:21.802Z,93863.80
2019-03-31T15:46:50.276Z,93869.66
2019-03-31T15:49:18.723Z,93870.15
2019-03-31T15:51:47.180Z,93873.15
2019-03-31T15:54:15.606Z,93871.20
2019-03-31T15:56:44.116Z,93874.69
2019-03-31T15:59:12.586Z,93867.22
2019-03-31T16:01:41.027Z,93868.77
2019-03-31T16:04:09.478Z,93865.31
2019-03-31T16:06:37.980Z,93879.06
2019-03-31T16:09:22.372Z,93874.53
2019-03-31T16:11:38.325Z,93870.27
2019-03-31T16:14:06.904Z,93875.61
2019-03-31T16:16:35.398Z,93879.64
2019-03-31T16:19:03.864Z,93869.93
2019-03-31T16:21:32.368Z,93859.73
2019-03-31T16:24:00.830Z,93869.78
2019-03-31T16:26:29.290Z,93865.64
2019-03-31T16:28:58.125Z,93867.75
2019-03-31T16:31:26.492Z,93865.37
2019-03-31T16:33:54.927Z,93854.14
2019-03-31T16:36:23.397Z,93856.38
2019-03-31T16:38:51.915Z,93865.81
2019-03-31T16:41:20.463Z,93866.89
2019-03-31T16:43:48.930Z,93867.25
2019-03-31T16:46:17.393Z,93870.08
2019-03-31T16:48:45.838Z,93869.05
2019-03-31T16:51:14.371Z,93864.62
2019-03-31T16:53:42.910Z,93868.93
2019-03-31T16:56:11.357Z,93868.11
2019-03-31T16:58:39.828Z,93868.20
2019-03-31T17:01:08.287Z,93868.06
2019-03-31T17:03:36.792Z,93867.05
2019-03-31T17:06:05.410Z,93870.12
2019-03-31T17:08:33.932Z,93872.47
2019-03-31T17:11:05.339Z,93884.27
2019-03-31T17:13:32.728Z,93877.19
2019-03-31T17:16:01.150Z,93878.53
2019-03-31T17:18:29.933Z,93873.73
2019-03-31T17:20:58.631Z,93884.12
2019-03-31T17:23:27.139Z,93877.79
2019-03-31T17:25:55.670Z,93874.98
2019-03-31T17:28:24.227Z,93877.20
2019-03-31T17:30:52.679Z,93884.89
2019-03-31T17:33:21.213Z,93880.87
2019-03-31T17:35:49.733Z,93881.73
2019-03-31T17:38:18.183Z,93881.14
2019-03-31T17:40:47.177Z,93885.06
2019-03-31T17:43:15.595Z,93887.08
2019-03-31T17:45:44.036Z,93888.27
2019-03-31T17:48:12.506Z,93889.42
2019-03-31T17:50:40.947Z,93892.11
2019-03-31T17:53:09.477Z,93888.15
2019-03-31T17:55:37.894Z,93886.47
2019-03-31T17:58:06.450Z,93892.80
2019-03-31T18:00:35.021Z,93890.09
2019-03-31T18:03:03.533Z,93896.16
2019-03-31T18:05:32.159Z,93890.58
2019-03-31T18:08:00.660Z,93897.70
2019-03-31T18:10:29.091Z,93893.05
2019-03-31T18:12:57.556Z,93893.53
2019-03-31T18:15:26.003Z,93897.11
2019-03-31T18:17:54.617Z,93895.00
2019-03-31T18:20:23.123Z,93901.72
2019-03-31T18:22:51.564Z,93902.42
2019-03-31T18:25:20.091Z,93905.22
2019-03-31T18:27:48.564Z,93903.50
2019-03-31T18:30:17.867Z,93909.56
2019-03-31T18:32:46.383Z,93909.07
2019-03-31T18:35:16.904Z,93913.96
2019-03-31T18:37:45.359Z,93919.62
2019-03-31T18:40:14.136Z,93924.19
2019-03-31T18:42:42.684Z,93921.45
2019-03-31T18:45:11.245Z,93925.95
2019-03-31T18:47:39.718Z,93924.94
2019-03-31T18:50:08.546Z,93926.14
2019-03-31T18:52:37.068Z,93929.16
2019-03-31T18:55:08.009Z,93928.58
2019-03-31T18:57:47.416Z,93934.42
2019-03-31T19:00:17.766Z,93936.48
2019-03-31T19:03:04.247Z,93942.55
2019-03-31T19:05:50.521Z,93942.55
2019-03-31T19:08:38.742Z,93944.68
2019-03-31T19:11:25.132Z,93948.23
2019-03-31T19:14:00.765Z,93948.23
2019-03-31T19:16:42.879Z,93952.36
2019-03-31T19:19:13.096Z,93951.25
2019-03-31T19:21:58.008Z,93956.52
2019-03-31T19:24:46.160Z,93961.55
2019-03-31T19:27:25.341Z,93969.25
2019-03-31T19:29:55.424Z,93965.80
2019-03-31T19:32:28.571Z,93967.39
2019-03-31T19:35:01.426Z,93967.11
2019-03-31T19:37:40.599Z,93972.23
2019-03-31T19:40:10.821Z,93973.17
2019-03-31T19:42:40.923Z,93973.27
2019-03-31T19:45:20.139Z,93974.03
2019-03-31T19:47:50.270Z,93974.39
2019-03-31T19:50:36.528Z,93975.42
2019-03-31T19:53:21.797Z,93977.64
2019-03-31T19:56:06.851Z,93973.89
2019-03-31T19:58:41.639Z,93976.20
2019-03-31T20:01:14.267Z,93978.44
2019-03-31T20:04:00.379Z,93979.68
2019-03-31T20:06:30.466Z,93980.08
2019-03-31T20:09:00.602Z,93985.03
2019-03-31T20:11:30.780Z,93978.55
2019-03-31T20:14:01.049Z,93983.72
2019-03-31T20:16:34.052Z,93985.40
2019-03-31T20:19:20.282Z,93984.94
2019-03-31T20:21:55.892Z,93992.88
2019-03-31T20:24:29.014Z,93992.95
2019-03-31T20:26:59.237Z,93994.14
2019-03-31T20:29:29.448Z,93993.15
2019-03-31T20:31:59.637Z,94001.53
2019-03-31T20:34:48.298Z,94001.02
2019-03-31T20:37:18.380Z,94002.33
2019-03-31T20:39:56.508Z,94003.46
2019-03-31T20:42:32.260Z,94001.52
2019-03-31T20:45:00.841Z,93998.85
2019-03-31T20:47:29.339Z,93997.35
2019-03-31T20:49:57.823Z,93994.95
2019-03-31T20:52:26.310Z,94000.20
2019-03-31T20:54:54.846Z,93994.17
2019-03-31T20:57:23.284Z,93994.84
2019-03-31T20:59:51.844Z,93994.11
2019-03-31T21:02:20.278Z,93997.71
2019-03-31T21:04:48.813Z,93995.67
2019-03-31T21:07:17.285Z,93992.80
2019-03-31T21:09:45.726Z,93989.99
2019-03-31T21:12:15.237Z,93990.02
2019-03-31T21:14:43.762Z,93996.80
2019-03-31T21:17:12.197Z,93985.84
2019-03-31T21:19:40.726Z,93992.80
2019-03-31T21:22:09.226Z,94001.36
2019-03-31T21:24:40.292Z,94005.30
2019-03-31T21:27:08.868Z,93999.09
2019-03-31T21:29:37.305Z,94006.48
2019-03-31T21:32:06.121Z,94007.38
2019-03-31T21:34:34.630Z,94005.88
2019-03-31T21:37:03.086Z,93999.22
2019-03-31T21:39:31.547Z,94001.78
2019-03-31T21:41:59.976Z,94002.21
2019-03-31T21:44:28.582Z,94007.63
2019-03-31T21:46:57.192Z,93998.52
2019-03-31T21:49:25.713Z,94001.61
2019-03-31T21:51:54.271Z,94002.66
2019-03-31T21:54:22.731Z,94000.22
2019-03-31T21:56:51.276Z,93999.42
2019-03-31T21:59:19.697Z,93999.77
2019-03-31T22:01:48.398Z,94002.83
2019-03-31T22:04:16.829Z,94000.22
2019-03-31T22:06:45.288Z,94001.92
2019-03-31T22:09:13.706Z,94003.81
2019-03-31T22:11:42.208Z,93999.95
2019-03-31T22:14:10.905Z,93998.69
2019-03-31T22:16:39.438Z,94007.97
2019-03-31T22:19:07.887Z,94008.13
2019-03-31T22:21:36.376Z,94003.10
2019-03-31T22:24:04.909Z,94007.35
2019-03-31T22:26:33.325Z,94002.91
2019-03-31T22:29:01.761Z,93995.08
2019-03-31T22:31:30.242Z,93997.28
2019-03-31T22:33:58.668Z,93989.11
2019-03-31T22:36:27.107Z,93998.75
2019-03-31T22:38:55.615Z,93996.03
2019-03-31T22:41:24.061Z,93993.89
2019-03-31T22:43:52.525Z,93999.14
2019-03-31T22:46:21.261Z,93998.55
2019-03-31T22:48:49.703Z,93998.63
2019-03-31T22:51:18.261Z,93996.14
2019-03-31T22:53:46.996Z,93988.60
2019-03-31T22:56:15.418Z,93984.12
2019-03-31T22:58:43.924Z,93987.03
2019-03-31T23:01:12.524Z,93987.09
2019-03-31T23:03:40.951Z,93991.66
2019-03-31T23:06:09.407Z,93981.03
2019-03-31T23:08:37.862Z,93985.19
2019-03-31T23:11:06.352Z,93981.70
2019-03-31T23:13:34.801Z,93986.05
2019-03-31T23:16:03.256Z,93989.50
2019-03-31T23:18:31.757Z,93984.52
2019-03-31T23:21:00.178Z,93981.86
2019-03-31T23:23:28.655Z,93977.95
2019-03-31T23:25:57.093Z,93978.99
2019-03-31T23:28:25.520Z,93974.09
2019-03-31T23:30:54.013Z,93984.54
2019-03-31T23:33:22.428Z,93983.23
2019-03-31T23:35:50.927Z,93986.65
2019-03-31T23:38:19.385Z,93989.39
2019-03-31T23:40:47.803Z,93981.40
2019-03-31T23:43:16.244Z,93979.77
2019-03-31T23:45:44.802Z,93979.64
2019-03-31T23:48:13.227Z,93983.56
2019-03-31T23:50:41.656Z,93984.61
2019-03-31T23:53:10.323Z,93981.20
2019-03-31T23:55:38.753Z,93971.84
2019-03-31T23:58:07.166Z,93980.75
